Time;durP1;ratioP1;P1;durP2;ratioP2;P2;SDS_P1;SDS_P2;PMS_P1;PMS_P2;Temp;Humidity;BMP_temperature;BMP_pressure;BME280_temperature;BME280_humidity;BME280_pressure;Samples;Min_cycle;Max_cycle;Signal;HPM_P1;HPM_P2
2022/08/15 00:00:09;;;;;;;11.30;7.65;;;;;;;24.03;50.89;100169.38;5014810;28;20033;-81
2022/08/15 00:02:42;;;;;;;15.02;7.35;;;;;;;24.04;51.70;100163.84;5031254;28;20045;-80
2022/08/15 00:05:12;;;;;;;11.50;7.67;;;;;;;24.03;51.31;100169.38;5032485;28;20065;-80
2022/08/15 00:07:38;;;;;;;9.90;7.38;;;;;;;24.00;51.59;100164.25;5031187;28;20296;-79
2022/08/15 00:10:06;;;;;;;11.55;6.97;;;;;;;23.94;52.32;100168.38;5031141;28;20037;-80
2022/08/15 00:12:32;;;;;;;8.63;6.65;;;;;;;23.92;50.43;100159.53;5030910;28;20033;-79
2022/08/15 00:14:58;;;;;;;13.75;7.85;;;;;;;23.86;53.04;100156.50;5014720;28;20091;-80
2022/08/15 00:17:24;;;;;;;15.73;8.45;;;;;;;23.89;52.45;100164.38;5030942;28;20083;-81
2022/08/15 00:19:49;;;;;;;14.05;8.98;;;;;;;23.90;53.08;100179.59;4998473;28;20051;-79
2022/08/15 00:22:19;;;;;;;13.48;9.02;;;;;;;23.85;53.74;100200.78;5030768;28;20124;-79
2022/08/15 00:24:47;;;;;;;16.75;9.55;;;;;;;23.74;53.51;100197.16;5032330;28;20029;-79
2022/08/15 00:27:12;;;;;;;11.50;9.38;;;;;;;23.61;53.32;100175.72;5032194;28;20045;-79
2022/08/15 00:29:38;;;;;;;11.32;9.32;;;;;;;23.51;53.13;100179.34;5030609;28;20029;-79
2022/08/15 00:32:11;;;;;;;9.82;8.82;;;;;;;23.40;54.82;100189.25;5030704;28;20053;-80
2022/08/15 00:34:36;;;;;;;12.02;9.73;;;;;;;23.29;54.57;100177.63;5030741;28;20481;-80
2022/08/15 00:37:03;;;;;;;11.80;9.38;;;;;;;23.26;54.85;100169.81;5014686;28;20109;-80
2022/08/15 00:39:29;;;;;;;14.63;9.40;;;;;;;23.25;54.77;100184.31;5030516;28;20481;-81
2022/08/15 00:41:58;;;;;;;10.75;9.40;;;;;;;23.24;54.64;100187.97;5030514;28;20029;-80
2022/08/15 00:44:32;;;;;;;11.98;10.18;;;;;;;23.24;54.92;100191.53;5030180;28;20532;-81
2022/08/15 00:47:07;;;;;;;12.30;9.40;;;;;;;23.21;54.34;100178.28;5030651;28;20099;-80
2022/08/15 00:49:33;;;;;;;10.60;8.68;;;;;;;23.17;54.59;100177.72;5030574;28;20117;-81
2022/08/15 00:52:10;;;;;;;15.43;9.02;;;;;;;23.16;54.33;100175.13;5031626;28;20056;-80
2022/08/15 00:54:43;;;;;;;12.63;9.40;;;;;;;23.12;55.30;100173.66;5023784;28;20064;-80
2022/08/15 00:57:21;;;;;;;12.27;9.15;;;;;;;23.08;54.88;100173.09;5033240;28;20041;-80
2022/08/15 00:59:53;;;;;;;11.57;8.82;;;;;;;23.05;54.57;100178.75;5030472;28;20120;-80
2022/08/15 01:02:24;;;;;;;9.68;7.80;;;;;;;23.04;54.20;100168.06;5029981;28;20608;-79
2022/08/15 01:04:51;;;;;;;11.52;8.55;;;;;;;23.07;55.33;100168.69;5031906;28;20083;-79
2022/08/15 01:07:18;;;;;;;9.60;8.60;;;;;;;23.07;54.08;100171.38;5013961;28;20029;-79
2022/08/15 01:09:44;;;;;;;10.43;8.70;;;;;;;23.04;54.93;100162.66;5030293;28;20397;-80
2022/08/15 01:12:14;;;;;;;9.13;8.23;;;;;;;23.06;55.28;100158.00;5011487;28;20041;-79
2022/08/15 01:14:45;;;;;;;12.23;8.73;;;;;;;23.08;54.67;100166.84;5027762;28;20044;-80
2022/08/15 01:17:11;;;;;;;13.85;9.07;;;;;;;23.10;55.20;100168.41;5030437;28;20115;-79
2022/08/15 01:19:56;;;;;;;10.73;9.18;;;;;;;23.09;55.47;100166.69;5029117;28;20171;-79
2022/08/15 01:22:48;;;;;;;10.20;8.80;;;;;;;23.09;54.35;100157.72;5013972;28;20033;-80
2022/08/15 01:25:17;;;;;;;19.15;8.77;;;;;;;23.02;54.97;100160.13;5008264;28;20045;-80
2022/08/15 01:27:52;;;;;;;10.50;8.93;;;;;;;23.01;55.00;100163.78;5030112;28;20080;-79
2022/08/15 01:30:25;;;;;;;15.38;8.57;;;;;;;23.00;54.25;100156.69;5030370;28;20044;-79
2022/08/15 01:32:53;;;;;;;14.80;8.88;;;;;;;22.98;54.30;100165.91;5029960;28;20057;-79
2022/08/15 01:35:19;;;;;;;9.65;8.63;;;;;;;22.97;53.79;100159.59;5029969;28;20339;-79
2022/08/15 01:37:45;;;;;;;10.40;8.15;;;;;;;22.96;53.83;100158.75;5013786;28;20040;-79
2022/08/15 01:40:24;;;;;;;13.90;8.45;;;;;;;22.90;54.38;100161.97;5013868;28;20042;-79
2022/08/15 01:42:52;;;;;;;9.15;7.55;;;;;;;22.84;53.59;100148.97;5025018;28;20033;-79
2022/08/15 01:45:22;;;;;;;13.38;7.68;;;;;;;22.85;52.84;100147.13;5032365;28;20111;-79
2022/08/15 01:47:54;;;;;;;9.52;7.72;;;;;;;22.85;52.74;100153.41;5030023;28;20143;-79
2022/08/15 01:50:35;;;;;;;9.82;7.43;;;;;;;22.84;52.74;100157.06;5029845;28;20033;-79
2022/08/15 01:53:12;;;;;;;13.65;7.57;;;;;;;22.79;52.49;100153.91;5029901;28;20106;-79
2022/08/15 01:55:52;;;;;;;10.50;6.88;;;;;;;22.78;52.67;100152.22;5029521;28;20434;-79
2022/08/15 01:58:19;;;;;;;14.85;7.13;;;;;;;22.73;52.68;100154.44;5029671;28;20069;-79
2022/08/15 02:00:55;;;;;;;11.02;6.45;;;;;;;22.69;52.19;100144.88;5010829;28;20134;-79
2022/08/15 02:03:33;;;;;;;9.43;6.18;;;;;;;22.61;52.38;100152.75;5029724;28;20057;-79
2022/08/15 02:06:15;;;;;;;6.90;6.13;;;;;;;22.56;52.37;100155.00;5030182;28;20056;-78
2022/08/15 02:08:44;;;;;;;8.88;5.90;;;;;;;22.49;52.30;100158.19;5029460;28;20068;-79
2022/08/15 02:11:15;;;;;;;10.32;6.38;;;;;;;22.41;52.48;100174.16;5029994;28;20090;-79
2022/08/15 02:13:47;;;;;;;9.43;6.45;;;;;;;22.33;52.89;100174.78;5033213;28;20061;-79
2022/08/15 02:16:14;;;;;;;7.50;6.43;;;;;;;22.26;53.40;100175.41;5015437;28;20041;-78
2022/08/15 02:18:41;;;;;;;14.52;6.68;;;;;;;22.14;53.38;100169.13;5032963;28;20037;-79
2022/08/15 02:21:07;;;;;;;10.55;6.40;;;;;;;22.11;53.23;100167.53;5033035;28;20033;-78
2022/08/15 02:23:33;;;;;;;12.32;6.15;;;;;;;22.08;53.50;100169.59;5016814;28;20045;-78
2022/08/15 02:25:58;;;;;;;7.70;5.90;;;;;;;22.06;53.22;100169.75;5016587;28;20037;-78
2022/08/15 02:28:25;;;;;;;8.18;6.00;;;;;;;22.03;53.13;100170.00;5032880;28;20106;-78
2022/08/15 02:30:53;;;;;;;8.68;5.40;;;;;;;21.95;52.93;100171.59;5033050;28;20033;-78
2022/08/15 02:33:21;;;;;;;6.78;5.25;;;;;;;21.94;52.58;100169.88;5032277;28;20465;-79
2022/08/15 02:35:48;;;;;;;8.95;4.95;;;;;;;21.92;53.28;100172.69;5032645;28;20069;-78
2022/08/15 02:38:16;;;;;;;16.77;5.40;;;;;;;21.87;53.26;100173.06;5032546;28;20043;-79
2022/08/15 02:40:41;;;;;;;7.57;5.30;;;;;;;21.83;52.82;100163.50;5032791;28;20124;-78
2022/08/15 02:43:12;;;;;;;9.13;5.40;;;;;;;21.79;53.02;100174.66;5012627;28;20034;-78
2022/08/15 02:45:47;;;;;;;7.07;5.10;;;;;;;21.76;52.93;100180.28;5028161;28;20112;-79
2022/08/15 02:48:14;;;;;;;5.75;4.55;;;;;;;21.78;52.85;100175.63;5032414;28;20033;-78
2022/08/15 02:50:41;;;;;;;9.30;4.45;;;;;;;21.75;52.36;100173.19;5032561;28;20441;-78
2022/08/15 02:53:12;;;;;;;12.35;5.07;;;;;;;21.74;52.60;100169.63;5032548;28;20076;-78
2022/08/15 02:55:41;;;;;;;10.18;5.15;;;;;;;21.73;52.32;100177.81;5032343;28;20030;-78
2022/08/15 02:58:09;;;;;;;6.85;4.82;;;;;;;21.75;51.80;100181.25;5032319;28;20388;-79
2022/08/15 03:00:37;;;;;;;12.38;4.85;;;;;;;21.72;51.41;100179.66;5032151;28;20033;-79
2022/08/15 03:03:09;;;;;;;9.00;5.00;;;;;;;21.67;52.11;100184.56;5032328;28;20045;-78
2022/08/15 03:05:38;;;;;;;9.75;3.97;;;;;;;21.67;51.79;100192.66;5032321;28;20033;-78
2022/08/15 03:08:04;;;;;;;9.32;4.30;;;;;;;21.63;51.36;100189.31;5032035;28;20037;-78
2022/08/15 03:10:30;;;;;;;6.95;4.03;;;;;;;21.53;51.27;100182.94;5033824;28;20400;-78
2022/08/15 03:13:07;;;;;;;11.65;3.80;;;;;;;21.47;51.02;100180.75;5015682;28;20124;-79
2022/08/15 03:15:46;;;;;;;9.43;3.70;;;;;;;21.46;50.92;100177.19;5044755;28;20044;-78
2022/08/15 03:18:13;;;;;;;12.23;3.83;;;;;;;21.43;50.60;100174.72;5031781;28;20151;-78
2022/08/15 03:20:45;;;;;;;13.38;3.45;;;;;;;21.39;50.38;100172.38;4999955;28;20428;-78
2022/08/15 03:23:14;;;;;;;8.20;3.30;;;;;;;21.39;50.48;100167.88;5032169;28;20061;-78
2022/08/15 03:25:48;;;;;;;7.95;3.30;;;;;;;21.35;50.57;100168.19;5015669;28;20529;-79
2022/08/15 03:28:19;;;;;;;7.13;3.45;;;;;;;21.33;50.62;100180.91;5031697;28;20033;-79
2022/08/15 03:30:45;;;;;;;;;;;;;;;21.45;49.97;100177.31;5008608;28;20120;-78
2022/08/15 03:33:11;;;;;;;9.20;3.30;;;;;;;21.30;50.23;100178.47;5027563;28;20020;-78
2022/08/15 03:35:45;;;;;;;9.30;3.35;;;;;;;21.27;50.08;100179.56;5015465;28;20037;-78
2022/08/15 03:38:16;;;;;;;8.65;3.28;;;;;;;21.22;50.36;100179.06;5031478;28;20048;-78
2022/08/15 03:40:45;;;;;;;7.28;2.90;;;;;;;21.14;51.28;100193.13;5031783;28;20030;-78
2022/08/15 03:43:13;;;;;;;10.43;3.42;;;;;;;21.07;51.14;100190.97;5032644;28;20504;-78
2022/08/15 03:45:57;;;;;;;7.57;3.35;;;;;;;20.97;50.68;100185.47;5031528;28;20052;-78
2022/08/15 03:48:29;;;;;;;5.30;3.25;;;;;;;20.89;51.22;100182.47;5031271;28;20419;-78
2022/08/15 03:50:58;;;;;;;7.10;3.45;;;;;;;20.86;51.15;100180.03;5031490;28;20433;-78
2022/08/15 03:53:32;;;;;;;5.30;3.50;;;;;;;20.89;50.84;100185.16;5031102;28;20493;-78
2022/08/15 03:55:59;;;;;;;6.75;3.67;;;;;;;20.88;50.97;100191.53;5017930;28;20044;-78
2022/08/15 03:58:26;;;;;;;5.63;3.10;;;;;;;20.81;51.44;100177.69;5044675;28;20021;-88
2022/08/15 04:00:52;;;;;;;9.80;3.45;;;;;;;20.81;51.34;100178.53;5030103;28;20088;-78
2022/08/15 04:03:28;;;;;;;10.30;3.67;;;;;;;20.77;51.23;100178.88;5015131;28;20037;-78
2022/08/15 04:05:59;;;;;;;6.00;3.15;;;;;;;20.73;51.78;100183.63;5031079;28;20032;-78
2022/08/15 04:08:30;;;;;;;6.38;3.22;;;;;;;20.68;51.41;100180.44;5031274;28;20052;-78
2022/08/15 04:10:56;;;;;;;;;;;;;;;20.78;50.89;100192.22;5031296;28;20087;-78
2022/08/15 04:13:24;;;;;;;7.95;3.08;;;;;;;20.65;51.39;100204.00;5014574;28;19916;-78
2022/08/15 04:16:01;;;;;;;9.68;3.60;;;;;;;20.61;51.92;100206.06;5030838;28;20040;-78
2022/08/15 04:18:28;;;;;;;5.82;3.75;;;;;;;20.55;52.13;100210.06;5014561;28;20147;-78
2022/08/15 04:20:57;;;;;;;7.45;3.50;;;;;;;20.50;52.24;100203.25;5031012;28;20040;-78
2022/08/15 04:23:23;;;;;;;7.50;4.00;;;;;;;20.43;52.29;100210.94;5014926;28;20029;-78
2022/08/15 04:25:49;;;;;;;7.85;4.20;;;;;;;20.38;52.76;100202.34;5031096;28;20397;-78
2022/08/15 04:28:17;;;;;;;8.55;3.92;;;;;;;20.35;52.13;100195.38;5037175;28;20025;-78
2022/08/15 04:30:45;;;;;;;6.32;3.67;;;;;;;20.37;52.38;100208.69;5038224;28;20366;-78
2022/08/15 04:33:23;;;;;;;5.05;3.47;;;;;;;20.31;52.28;100199.25;5010798;28;20058;-78
2022/08/15 04:35:52;;;;;;;12.30;4.40;;;;;;;20.27;52.59;100208.50;5014395;28;20044;-78
2022/08/15 04:38:18;;;;;;;6.07;3.97;;;;;;;20.30;52.40;100213.66;5030576;28;20025;-78
2022/08/15 04:40:46;;;;;;;8.55;4.38;;;;;;;20.29;52.57;100208.38;5030936;28;20132;-78
2022/08/15 04:43:12;;;;;;;6.75;4.13;;;;;;;20.24;52.63;100213.25;5030590;28;20052;-78
2022/08/15 04:45:40;;;;;;;7.07;4.00;;;;;;;20.26;52.31;100212.16;4998019;28;20033;-79
2022/08/15 04:48:07;;;;;;;8.10;4.03;;;;;;;20.25;52.51;100209.56;5029903;28;20033;-78
2022/08/15 04:50:36;;;;;;;7.28;3.85;;;;;;;20.27;52.70;100213.00;5018417;28;20033;-79
2022/08/15 04:53:07;;;;;;;10.68;4.10;;;;;;;20.28;52.57;100212.91;5030599;28;20037;-78
2022/08/15 04:55:35;;;;;;;9.38;4.50;;;;;;;20.28;52.71;100207.53;5030405;28;20037;-79
2022/08/15 04:58:02;;;;;;;11.32;4.50;;;;;;;20.30;52.59;100210.09;4996605;28;20026;-78
2022/08/15 05:00:31;;;;;;;9.23;3.92;;;;;;;20.27;52.90;100204.94;5030477;28;20147;-78
2022/08/15 05:03:21;;;;;;;9.45;4.70;;;;;;;20.32;52.87;100219.75;5030337;28;20060;-78
2022/08/15 05:05:56;;;;;;;8.65;4.13;;;;;;;20.37;52.74;100211.38;5014635;28;20100;-78
2022/08/15 05:08:26;;;;;;;9.80;4.38;;;;;;;20.40;52.90;100219.25;5030698;28;20064;-79
2022/08/15 05:10:56;;;;;;;12.10;3.53;;;;;;;20.40;53.39;100214.72;5013818;28;20039;-78
2022/08/15 05:13:27;;;;;;;8.90;3.90;;;;;;;20.41;53.42;100218.25;5030424;28;20038;-79
2022/08/15 05:15:53;;;;;;;14.05;4.18;;;;;;;20.37;53.90;100222.97;5030272;28;20029;-78
2022/08/15 05:18:22;;;;;;;11.23;4.05;;;;;;;20.39;53.55;100226.41;5030456;28;20099;-79
2022/08/15 05:20:48;;;;;;;8.90;4.20;;;;;;;20.41;53.59;100227.19;5030247;28;20508;-78
2022/08/15 05:23:16;;;;;;;9.43;3.90;;;;;;;20.44;54.01;100234.16;5030242;28;20056;-78
2022/08/15 05:25:53;;;;;;;7.50;4.07;;;;;;;20.48;53.85;100232.97;5030398;28;20388;-78
2022/08/15 05:28:20;;;;;;;12.32;4.60;;;;;;;20.53;54.47;100238.03;5013972;28;20152;-79
2022/08/15 05:30:46;;;;;;;12.60;4.50;;;;;;;20.59;54.10;100218.75;5027113;28;20121;-79
2022/08/15 05:33:18;;;;;;;12.85;4.38;;;;;;;20.66;54.54;100227.25;5029897;28;20056;-78
2022/08/15 05:35:49;;;;;;;12.75;4.30;;;;;;;20.71;53.68;100227.78;5030030;28;20033;-78
2022/08/15 05:38:23;;;;;;;9.48;3.80;;;;;;;20.74;54.74;100235.59;5013690;28;20121;-79
2022/08/15 05:41:07;;;;;;;9.18;4.28;;;;;;;20.73;54.67;100232.06;5030548;28;20073;-78
2022/08/15 05:43:40;;;;;;;11.30;4.38;;;;;;;20.73;55.62;100237.44;5034007;28;20168;-78
2022/08/15 05:46:39;;;;;;;11.23;4.00;;;;;;;20.75;54.68;100226.59;5033734;28;20108;-78
2022/08/15 05:49:17;;;;;;;10.57;3.83;;;;;;;20.79;55.63;100245.03;5033660;28;20053;-78
2022/08/15 05:51:55;;;;;;;13.13;4.30;;;;;;;20.81;55.78;100244.94;5033267;28;20041;-79
2022/08/15 05:54:48;;;;;;;8.63;4.32;;;;;;;20.77;56.40;100265.84;5014571;28;20040;-79
2022/08/15 05:57:24;;;;;;;10.88;4.43;;;;;;;20.80;55.69;100248.63;5033456;28;20037;-79
2022/08/15 05:59:55;;;;;;;12.40;3.88;;;;;;;20.79;56.90;100252.25;5033883;28;20034;-79
2022/08/15 06:02:36;;;;;;;8.68;4.53;;;;;;;20.80;56.90;100254.84;5033486;28;20504;-79
2022/08/15 06:05:05;;;;;;;;;;;;;;;20.88;56.37;100248.06;5024301;28;20041;-79
2022/08/15 06:07:32;;;;;;;10.82;4.28;;;;;;;20.79;57.01;100245.03;5015200;28;19913;-79
2022/08/15 06:10:02;;;;;;;8.80;4.05;;;;;;;20.83;57.50;100234.94;4998951;28;20034;-79
2022/08/15 06:12:34;;;;;;;12.45;4.05;;;;;;;20.86;57.86;100248.16;5007539;28;20038;-78
2022/08/15 06:15:17;;;;;;;8.45;3.92;;;;;;;20.88;56.75;100248.91;5017556;28;20116;-79
2022/08/15 06:17:56;;;;;;;13.48;3.85;;;;;;;20.90;58.29;100255.03;5033333;28;20493;-79
2022/08/15 06:21:16;;;;;;;6.68;4.15;;;;;;;20.90;58.13;100246.97;5024108;28;20029;-79
2022/08/15 06:24:00;;;;;;;10.85;4.30;;;;;;;20.90;58.71;100246.97;5014353;28;20041;-78
2022/08/15 06:26:47;;;;;;;11.48;3.95;;;;;;;20.94;59.64;100271.81;5024043;28;20034;-79
2022/08/15 06:29:16;;;;;;;11.98;4.45;;;;;;;20.99;59.79;100269.63;5032416;28;20128;-80
2022/08/15 06:31:53;;;;;;;8.45;3.97;;;;;;;21.03;59.48;100266.59;5024402;28;20033;-79
2022/08/15 06:34:47;;;;;;;6.82;4.50;;;;;;;21.12;59.22;100265.06;5028137;28;20509;-79
2022/08/15 06:37:44;;;;;;;11.10;3.72;;;;;;;21.27;58.49;100263.03;5016174;28;20036;-78
2022/08/15 06:40:38;;;;;;;6.40;4.05;;;;;;;21.32;59.03;100260.00;5017114;28;20040;-78
2022/08/15 06:43:07;;;;;;;9.73;4.20;;;;;;;21.28;60.09;100248.59;5017066;28;20188;-78
2022/08/15 06:45:54;;;;;;;9.88;4.70;;;;;;;21.29;60.52;100254.81;5027282;28;20025;-79
2022/08/15 06:48:29;;;;;;;8.30;4.43;;;;;;;21.38;60.00;100254.13;5013019;28;20048;-78
2022/08/15 06:51:00;;;;;;;10.52;4.35;;;;;;;21.45;59.83;100258.97;5016398;28;20033;-78
2022/08/15 06:53:35;;;;;;;10.25;4.30;;;;;;;21.50;60.00;100261.31;5032918;28;20061;-79
2022/08/15 06:56:08;;;;;;;10.95;4.47;;;;;;;21.60;60.27;100269.56;5032934;28;20061;-79
2022/08/15 06:58:53;;;;;;;7.00;4.15;;;;;;;21.61;60.10;100265.88;5032458;28;20040;-78
2022/08/15 07:01:28;;;;;;;8.93;4.68;;;;;;;21.60;60.54;100267.72;5019875;28;20481;-79
2022/08/15 07:04:18;;;;;;;11.07;4.68;;;;;;;21.68;60.17;100267.09;5030319;28;20508;-78
2022/08/15 07:07:12;;;;;;;16.50;4.30;;;;;;;21.73;59.78;100261.38;5040903;28;20046;-79
2022/08/15 07:09:54;;;;;;;15.48;4.53;;;;;;;21.74;59.76;100255.88;5019285;28;20112;-80
2022/08/15 07:12:19;;;;;;;17.35;4.53;;;;;;;21.67;60.81;100263.56;5032442;28;20034;-79
2022/08/15 07:15:05;;;;;;;9.32;4.45;;;;;;;;;;5016022;28;20041;-78
2022/08/15 07:17:42;;;;;;;11.80;4.63;;;;;;;21.71;60.83;100266.00;5047156;28;20116;-79
2022/08/15 07:20:09;;;;;;;17.33;5.05;;;;;;;21.72;61.31;100263.22;5032358;28;20112;-78
2022/08/15 07:22:39;;;;;;;12.75;5.07;;;;;;;21.75;61.51;100246.78;5015847;28;20042;-78
2022/08/15 07:25:11;;;;;;;13.10;5.20;;;;;;;21.84;61.46;100242.53;5032324;28;20404;-78
2022/08/15 07:27:37;;;;;;;7.53;4.55;;;;;;;22.07;60.76;100246.94;5031768;28;20064;-78
2022/08/15 07:30:09;;;;;;;10.77;4.90;;;;;;;22.29;60.07;100247.97;5015765;28;20057;-79
2022/08/15 07:32:45;;;;;;;14.20;5.50;;;;;;;22.44;59.53;100253.97;5033218;28;20128;-78
2022/08/15 07:35:14;;;;;;;9.95;5.43;;;;;;;22.52;59.83;100260.44;5015935;28;20044;-79
2022/08/15 07:37:55;;;;;;;9.63;5.35;;;;;;;22.58;60.11;100253.72;5016242;28;20040;-79
2022/08/15 07:40:29;;;;;;;12.18;5.18;;;;;;;22.70;59.11;100252.72;5033431;28;20041;-79
2022/08/15 07:42:57;;;;;;;12.70;5.80;;;;;;;22.67;59.67;100252.94;5032049;28;20033;-79
2022/08/15 07:45:31;;;;;;;9.88;5.75;;;;;;;22.68;59.81;100251.97;5015523;28;20033;-79
2022/08/15 07:48:22;;;;;;;13.38;6.15;;;;;;;22.72;59.31;100249.88;5030743;28;20506;-79
2022/08/15 07:51:06;;;;;;;16.85;5.80;;;;;;;22.75;59.16;100247.78;5031896;28;20130;-79
2022/08/15 07:53:32;;;;;;;14.63;6.00;;;;;;;22.76;59.35;100257.59;5029074;28;20040;-78
2022/08/15 07:56:09;;;;;;;15.45;6.07;;;;;;;22.78;60.38;100270.13;5031819;28;20056;-78
2022/08/15 07:58:35;;;;;;;15.68;6.03;;;;;;;22.82;61.22;100269.72;5031797;28;20037;-78
2022/08/15 08:01:22;;;;;;;11.63;6.05;;;;;;;22.91;59.31;100274.38;5015962;28;20483;-79
2022/08/15 08:04:05;;;;;;;19.65;6.40;;;;;;;22.96;59.48;100269.44;5016345;28;20076;-79
2022/08/15 08:06:40;;;;;;;13.17;6.40;;;;;;;23.01;59.56;100269.09;5025804;28;20108;-79
2022/08/15 08:09:42;;;;;;;12.77;7.03;;;;;;;23.05;59.42;100275.13;5015052;28;20041;-79
2022/08/15 08:12:34;;;;;;;11.45;6.47;;;;;;;23.08;58.13;100266.75;5031604;28;20029;-77
2022/08/15 08:15:09;;;;;;;12.38;7.03;;;;;;;23.04;58.63;100265.28;5031370;28;20028;-86
2022/08/15 08:17:38;;;;;;;18.80;7.30;;;;;;;23.09;58.48;100271.16;5033375;28;20109;-78
2022/08/15 08:20:15;;;;;;;16.50;6.88;;;;;;;23.18;59.08;100275.81;5026204;28;20056;-80
2022/08/15 08:22:54;;;;;;;12.93;6.63;;;;;;;23.28;58.34;100270.47;5015892;28;20025;-79
2022/08/15 08:25:27;;;;;;;11.95;6.13;;;;;;;23.33;58.44;100277.22;5034604;28;20024;-79
2022/08/15 08:28:01;;;;;;;10.43;5.95;;;;;;;23.32;58.13;100280.06;5033812;28;20029;-79
2022/08/15 08:30:41;;;;;;;12.73;6.70;;;;;;;23.33;58.58;100279.06;5041438;28;20039;-79
2022/08/15 08:33:39;;;;;;;16.63;6.43;;;;;;;23.31;58.63;100281.03;5032046;28;20484;-79
2022/08/15 08:36:21;;;;;;;12.98;6.65;;;;;;;23.34;58.11;100272.66;5024559;28;20054;-79
2022/08/15 08:39:22;;;;;;;10.15;5.95;;;;;;;23.43;57.54;100281.84;5026313;28;20120;-81
2022/08/15 08:41:48;;;;;;;12.30;6.65;;;;;;;23.46;58.82;100281.56;5025251;28;20071;-79
2022/08/15 08:44:23;;;;;;;10.93;6.13;;;;;;;23.52;58.67;100281.06;5029484;28;20456;-80
2022/08/15 08:47:40;;;;;;;12.07;6.43;;;;;;;23.62;58.05;100271.19;5021467;28;20030;-80
2022/08/15 08:50:15;;;;;;;17.52;6.00;;;;;;;23.69;58.56;100285.00;5008927;28;20033;-79
2022/08/15 08:52:52;;;;;;;14.35;5.78;;;;;;;23.66;58.01;100277.16;5018100;28;20032;-80
2022/08/15 08:55:29;;;;;;;11.65;6.00;;;;;;;23.69;58.21;100280.47;5032810;28;20103;-80
2022/08/15 08:58:03;;;;;;;9.07;6.10;;;;;;;23.61;58.01;100285.66;5042072;28;20030;-80
2022/08/15 09:00:43;;;;;;;15.38;6.32;;;;;;;23.54;58.21;100287.19;5014448;28;20040;-79
2022/08/15 09:03:29;;;;;;;16.92;6.57;;;;;;;23.52;58.02;100291.88;5013516;28;20041;-80
2022/08/15 09:05:58;;;;;;;13.07;5.80;;;;;;;23.50;58.61;100299.25;5030120;28;20037;-79
2022/08/15 09:08:35;;;;;;;15.07;6.45;;;;;;;23.47;58.30;100292.25;5032611;28;20046;-80
2022/08/15 09:11:16;;;;;;;11.32;6.22;;;;;;;23.46;58.84;100293.22;5030670;28;20075;-79
2022/08/15 09:13:44;;;;;;;12.13;6.13;;;;;;;23.49;58.70;100295.69;5032308;28;20473;-80
2022/08/15 09:16:25;;;;;;;12.80;6.28;;;;;;;23.55;58.99;100302.41;5037819;28;20048;-78
2022/08/15 09:19:14;;;;;;;12.68;6.00;;;;;;;23.57;58.05;100300.44;5042343;28;20434;-79
2022/08/15 09:21:43;;;;;;;10.90;6.53;;;;;;;23.42;59.88;100299.03;5023703;28;20068;-78
2022/08/15 09:24:10;;;;;;;17.67;6.32;;;;;;;23.41;59.92;100300.88;5036889;28;20030;-79
2022/08/15 09:26:44;;;;;;;10.52;6.10;;;;;;;23.48;59.90;100304.78;5055835;28;20035;-78
2022/08/15 09:29:27;;;;;;;13.70;6.47;;;;;;;23.48;59.71;100306.63;5038983;28;20103;-78
2022/08/15 09:32:27;;;;;;;10.10;5.80;;;;;;;23.50;59.25;100305.50;5014744;28;20100;-78
2022/08/15 09:35:17;;;;;;;11.73;5.38;;;;;;;23.43;60.05;100304.31;5035545;28;20116;-79
2022/08/15 09:37:45;;;;;;;12.15;6.00;;;;;;;23.42;60.95;100310.72;5035361;28;20036;-81
2022/08/15 09:40:12;;;;;;;10.40;6.18;;;;;;;23.38;61.24;100307.41;5017902;28;20048;-83
2022/08/15 09:43:12;;;;;;;9.40;5.88;;;;;;;23.38;61.11;100309.25;5034711;28;20040;-82
2022/08/15 09:45:44;;;;;;;14.75;6.65;;;;;;;23.33;60.74;100308.78;5034761;28;20029;-81
2022/08/15 09:48:33;;;;;;;13.95;5.70;;;;;;;23.37;61.11;100307.53;5034115;28;20037;-82
2022/08/15 09:51:18;;;;;;;17.08;5.72;;;;;;;23.38;61.35;100301.13;5034300;28;20052;-82
2022/08/15 09:53:46;;;;;;;16.33;5.45;;;;;;;23.46;60.63;100303.19;5033977;28;20025;-82
2022/08/15 09:56:18;;;;;;;13.75;5.63;;;;;;;23.70;60.62;100305.66;5033059;28;20156;-82
2022/08/15 09:58:54;;;;;;;10.85;5.93;;;;;;;23.86;59.30;100297.97;5016812;28;20384;-84
2022/08/15 10:01:25;;;;;;;15.85;5.68;;;;;;;23.94;58.99;100303.59;5033365;28;20038;-83
2022/08/15 10:03:56;;;;;;;16.52;5.50;;;;;;;24.09;58.87;100303.25;5048604;28;20116;-81
2022/08/15 10:06:32;;;;;;;14.63;5.75;;;;;;;24.28;57.73;100302.47;5041569;28;20041;-82
2022/08/15 10:09:16;;;;;;;11.77;5.35;;;;;;;24.45;57.40;100309.97;5038469;28;20048;-82
2022/08/15 10:11:41;;;;;;;12.15;5.20;;;;;;;24.65;58.17;100314.50;5034082;28;20504;-82
2022/08/15 10:14:29;;;;;;;12.10;5.50;;;;;;;24.81;57.22;100308.56;5032457;28;20038;-83
2022/08/15 10:17:04;;;;;;;9.90;5.15;;;;;;;24.79;56.55;100307.00;4998948;28;20136;-83
2022/08/15 10:19:38;;;;;;;16.63;5.38;;;;;;;24.77;55.99;100304.41;5043793;28;20037;-82
2022/08/15 10:22:21;;;;;;;8.65;5.32;;;;;;;24.74;56.12;100298.44;5035862;28;20033;-82
2022/08/15 10:25:15;;;;;;;10.65;5.28;;;;;;;24.75;56.22;100305.53;5028433;28;20036;-83
2022/08/15 10:28:16;;;;;;;8.57;5.47;;;;;;;24.74;55.94;100298.44;5035895;28;20381;-82
2022/08/15 10:31:12;;;;;;;13.05;5.35;;;;;;;24.75;55.86;100308.25;5007662;28;20044;-82
2022/08/15 10:33:52;;;;;;;8.65;5.10;;;;;;;24.72;55.80;100303.13;5012787;28;20393;-81
2022/08/15 10:36:24;;;;;;;9.73;5.18;;;;;;;24.61;55.89;100310.34;5027927;28;20081;-82
2022/08/15 10:39:08;;;;;;;10.68;5.53;;;;;;;24.65;55.33;100311.81;5030022;28;20033;-81
2022/08/15 10:42:08;;;;;;;8.93;5.47;;;;;;;24.66;55.01;100313.50;5024247;28;20061;-82
2022/08/15 10:44:36;;;;;;;9.15;5.32;;;;;;;24.73;55.65;100319.25;5018751;28;20060;-81
2022/08/15 10:47:07;;;;;;;14.80;5.28;;;;;;;24.76;55.26;100308.13;5018342;28;20100;-81
2022/08/15 10:49:42;;;;;;;15.43;5.57;;;;;;;24.80;54.87;100315.00;5001639;28;20389;-82
2022/08/15 10:52:18;;;;;;;14.98;5.18;;;;;;;24.80;54.75;100311.41;5020411;28;20438;-81
2022/08/15 10:55:17;;;;;;;14.02;5.18;;;;;;;24.84;55.00;100319.09;5020531;28;20061;-82
2022/08/15 10:57:51;;;;;;;12.15;5.13;;;;;;;24.89;55.22;100313.28;5028311;28;20551;-81
2022/08/15 11:00:41;;;;;;;10.90;4.70;;;;;;;24.95;55.57;100320.00;5029563;28;20029;-81
2022/08/15 11:03:17;;;;;;;10.27;5.05;;;;;;;24.92;55.51;100315.72;5042597;28;20550;-81
2022/08/15 11:05:42;;;;;;;15.25;5.30;;;;;;;24.88;55.75;100319.72;5028766;28;20034;-82
2022/08/15 11:08:14;;;;;;;11.32;5.13;;;;;;;24.79;55.78;100313.25;5006391;28;20481;-82
2022/08/15 11:10:40;;;;;;;11.10;5.50;;;;;;;24.72;56.80;100311.25;4985085;28;20026;-81
2022/08/15 11:13:09;;;;;;;11.13;4.65;;;;;;;24.67;56.29;100314.34;5031431;28;20512;-81
2022/08/15 11:15:56;;;;;;;13.93;4.65;;;;;;;24.71;55.67;100323.06;5025563;28;20030;-82
2022/08/15 11:18:34;;;;;;;8.65;4.32;;;;;;;24.58;55.58;100320.59;5022800;28;20370;-82
2022/08/15 11:21:24;;;;;;;11.27;4.57;;;;;;;24.53;55.14;100322.84;5026291;28;20044;-81
2022/08/15 11:23:57;;;;;;;8.98;4.30;;;;;;;24.43;55.11;100326.34;5026677;28;20079;-81
2022/08/15 11:26:27;;;;;;;8.75;3.90;;;;;;;24.41;55.17;100322.91;5031904;28;20036;-81
2022/08/15 11:29:08;;;;;;;;;;;;;;;24.46;55.43;100317.13;5030713;28;20156;-82
2022/08/15 11:31:43;;;;;;;7.22;4.38;;;;;;;24.40;55.52;100323.03;5025662;28;20365;-81
2022/08/15 11:34:19;;;;;;;10.73;4.43;;;;;;;24.35;55.45;100325.31;5013925;28;20442;-82
2022/08/15 11:36:45;;;;;;;11.57;4.53;;;;;;;24.28;56.29;100324.13;5025785;28;20670;-82
2022/08/15 11:39:15;;;;;;;6.10;3.88;;;;;;;24.33;55.72;100328.16;5014983;28;20037;-81
2022/08/15 11:41:49;;;;;;;11.45;4.50;;;;;;;24.37;56.13;100328.72;5026332;28;20089;-82
2022/08/15 11:44:15;;;;;;;6.25;3.90;;;;;;;24.43;55.84;100333.59;5047915;28;20038;-81
2022/08/15 11:46:45;;;;;;;9.10;4.18;;;;;;;24.54;55.40;100327.28;5032204;28;20037;-81
2022/08/15 11:49:23;;;;;;;10.80;4.77;;;;;;;24.68;55.63;100330.47;5048500;28;20056;-82
2022/08/15 11:51:48;;;;;;;11.18;4.03;;;;;;;24.83;55.26;100324.69;5020988;28;20033;-82
2022/08/15 11:54:14;;;;;;;9.60;4.07;;;;;;;24.96;54.71;100330.69;5015182;28;20052;-81